Gunnison, CO

7:05 PM MDT on September 22, 2014 (GMT -0600)
Aspen-Pitkin County / Sardy Field | Change Station
CLOSE
Current Station
Airport
Location: Aspen,
Elevation: 7822 ft
Nearby Weather Stations

Elev 7822 ft 39.23 °N, 106.87 °W | Updated 12 minutes ago

Overcast
Overcast
58 °F
Feels Like 58 °F
N
0
Wind Variable Wind from North

Today
High -- | Low -- °F
--% Chance of Precip.
Yesterday
High -- | Low -- °F
Precip. -- in
6:55 AM 7:04 PM
Waning Crescent, 1% visible
Pressure 30.03 in
Visibility 10.0 miles
Clouds Scattered Clouds 8000 ft
Mostly Cloudy 10000 ft
Dew Point 48 °F
Humidity 70%
Rainfall 0.00 in
Snow Depth 0 in , 0 in , 0 in
UV 0 out of 12
Pollen 4.70 out of 12
Air Quality Not available.
Flu Activity Not available.
METAR KASE 230053Z COR 00000KT 10SM SCT080 BKN100 14/09 A3032 RMK AO2 SLP167 T01440089

More Conditions Fewer Conditions

Pressure 30.03 in
Visibility 10.0 miles
Clouds Scattered Clouds 8000 ft
Mostly Cloudy 10000 ft
Dew Point 48 °F
Humidity 70%
Rainfall 0.00 in
Snow Depth 0 in , 0 in , 0 in
UV 0 out of 12
Pollen 4.70 out of 12
Air Quality Not available.
Flu Activity Not available.
METAR KASE 230053Z COR 00000KT 10SM SCT080 BKN100 14/09 A3032 RMK AO2 SLP167 T01440089

More Conditions Fewer Conditions

10-Day Weather Forecast

Almanac

Astronomy

Sep. 22, 2014 Rise Set
Actual Time 6:55 AM MDT 7:04 PM MDT
Civil Twilight 6:29 AM MDT 7:31 PM MDT
Nautical Twilight 5:58 AM MDT 8:02 PM MDT
Astronomical Twilight 5:26 AM MDT 8:33 PM MDT
Moon 5:27 AM MDT (9/22) 6:13 PM MDT (9/22)
Length of Visible Light 13h 02m
Length of Day
12h 09m
Tomorrow will be 2m 29s shorter.
Waning Crescent, 1% of the Moon is Illuminated
Today
Waning Crescent
Sep 24
New
Oct 1
First Quarter
Oct 8
Full
Oct 15
Last Quarter

Today's Extremes

State Highs State Lows

Community

WunderPhotos

Upload Photos

1,755,579 photos uploaded!

Nearby

Snow Depth

Station Depth Elevation
Ute Creek 0 in 10650 ft
Beaver Divide 0 in 8280 ft
Jackwhacker Gulch 0 in 10960 ft
Rabbit Ears 0 in 9400 ft
Wolf Creek Summit 0 in 11000 ft

Earthquake Activity

City Distance Mag. Time & Date
No recent earthquake activity has been reported nearby.
Minimum magnitude displayed is 2.5.

Coastal Water Temperatures

Place Temperature
No Stations Reporting

Nearby Weather Stations